Time;durP1;ratioP1;P1;durP2;ratioP2;P2;SDS_P1;SDS_P2;PMS_P1;PMS_P2;Temp;Humidity;BMP_temperature;BMP_pressure;BME280_temperature;BME280_humidity;BME280_pressure;Samples;Min_cycle;Max_cycle;Signal;HPM_P1;HPM_P2
2021/04/25 00:01:46;;;;;;;18.88;9.48;;;;;;;27.30;15.97;98491.31;5045923;28;20033;-91
2021/04/25 00:04:15;;;;;;;21.27;9.70;;;;;;;27.45;15.83;98488.88;5041251;28;20033;-90
2021/04/25 00:06:44;;;;;;;18.98;9.88;;;;;;;27.54;15.73;98489.81;5048407;28;20036;-91
2021/04/25 00:09:12;;;;;;;18.35;9.52;;;;;;;27.64;15.64;98491.53;5049285;28;20029;-91
2021/04/25 00:11:40;;;;;;;21.38;9.65;;;;;;;27.61;15.62;98488.84;5035462;28;20394;-91
2021/04/25 00:14:06;;;;;;;21.95;10.90;;;;;;;27.67;15.66;98490.66;5034442;28;20032;-91
2021/04/25 00:16:33;;;;;;;24.45;11.90;;;;;;;27.47;16.12;98497.72;5044960;28;20072;-91
2021/04/25 00:18:59;;;;;;;24.63;11.95;;;;;;;27.30;16.23;98491.31;5041112;28;20021;-91
2021/04/25 00:21:28;;;;;;;21.80;10.35;;;;;;;27.31;16.22;98490.84;5038955;28;20044;-91
2021/04/25 00:23:58;;;;;;;22.90;10.18;;;;;;;27.18;16.42;98492.84;5037364;28;20029;-91
2021/04/25 00:26:25;;;;;;;18.85;8.85;;;;;;;27.28;16.30;98488.16;5039623;28;20036;-91
2021/04/25 00:28:51;;;;;;;20.45;9.70;;;;;;;27.11;16.43;98490.22;5043067;28;20021;-91
2021/04/25 00:31:18;;;;;;;23.88;11.40;;;;;;;27.06;16.12;98492.78;5037907;28;20082;-90
2021/04/25 00:33:44;;;;;;;21.95;10.52;;;;;;;26.95;16.61;98490.28;5044796;28;20121;-91
2021/04/25 00:36:10;;;;;;;19.10;8.65;;;;;;;27.20;16.34;98490.38;5044172;28;20041;-90
2021/04/25 00:38:36;;;;;;;23.38;10.43;;;;;;;27.32;16.03;98488.84;5045325;28;20040;-90
2021/04/25 00:41:02;;;;;;;21.13;9.65;;;;;;;27.02;16.39;98487.28;5048006;28;20080;-90
2021/04/25 00:43:28;;;;;;;23.52;9.15;;;;;;;26.70;16.59;98487.28;5033326;28;20044;-90
2021/04/25 00:45:55;;;;;;;20.95;9.70;;;;;;;26.57;16.99;98481.59;5036481;28;20041;-91
2021/04/25 00:48:22;;;;;;;18.70;9.25;;;;;;;26.60;16.48;98477.91;5047015;28;20040;-91
2021/04/25 00:50:48;;;;;;;19.90;9.10;;;;;;;26.95;16.46;98475.38;5033491;28;20112;-91
2021/04/25 00:53:15;;;;;;;18.17;9.02;;;;;;;27.12;16.06;98479.75;5045232;28;20048;-91
2021/04/25 00:55:41;;;;;;;19.13;9.75;;;;;;;26.74;16.43;98488.00;5034675;28;20029;-91
2021/04/25 00:58:07;;;;;;;20.38;9.15;;;;;;;26.44;16.90;98474.28;5051476;28;20051;-91
2021/04/25 01:00:33;;;;;;;19.25;9.35;;;;;;;26.84;16.25;98483.34;5050274;28;20051;-91
2021/04/25 01:03:00;;;;;;;20.02;9.27;;;;;;;27.16;15.86;98475.59;5034298;28;20091;-91
2021/04/25 01:05:26;;;;;;;22.27;10.98;;;;;;;27.45;15.58;98484.03;5040983;28;20128;-90
2021/04/25 01:07:52;;;;;;;18.02;9.45;;;;;;;27.57;15.42;98474.03;5035005;28;20039;-91
2021/04/25 01:10:19;;;;;;;14.95;8.40;;;;;;;27.72;15.64;98478.03;5039439;28;20045;-91
2021/04/25 01:12:46;;;;;;;18.10;9.00;;;;;;;27.64;15.32;98488.72;5036477;28;20081;-91
2021/04/25 01:15:14;;;;;;;21.88;10.48;;;;;;;27.47;15.89;98484.38;5044123;28;20039;-91
2021/04/25 01:17:46;;;;;;;20.50;10.40;;;;;;;26.88;16.23;98478.41;5033419;28;20029;-91
2021/04/25 01:20:15;;;;;;;18.42;9.73;;;;;;;27.03;16.28;98479.59;5040394;28;20033;-91
2021/04/25 01:22:41;;;;;;;22.35;10.80;;;;;;;27.20;16.30;98470.66;5049359;28;20090;-91
2021/04/25 01:25:09;;;;;;;17.90;8.57;;;;;;;27.08;16.44;98481.84;5040187;28;20037;-91
2021/04/25 01:27:36;;;;;;;17.30;8.30;;;;;;;27.15;16.50;98478.84;5042491;28;20589;-91
2021/04/25 01:30:05;;;;;;;16.98;8.80;;;;;;;26.47;17.14;98471.38;5034993;28;20479;-91
2021/04/25 01:32:32;;;;;;;14.93;7.85;;;;;;;26.79;16.55;98475.44;5039234;28;20114;-91
2021/04/25 01:34:58;;;;;;;17.50;7.95;;;;;;;26.98;16.17;98471.69;5047840;28;20033;-91
2021/04/25 01:37:24;;;;;;;19.23;8.55;;;;;;;27.26;16.12;98474.50;5034603;28;20067;-91
2021/04/25 01:39:51;;;;;;;14.82;7.43;;;;;;;27.54;15.81;98478.53;5035779;28;20079;-91
2021/04/25 01:42:18;;;;;;;15.00;7.30;;;;;;;27.76;15.84;98479.50;5037080;28;20095;-91
2021/04/25 01:44:44;;;;;;;15.93;7.88;;;;;;;27.37;16.12;98472.19;5046106;28;20021;-91
2021/04/25 01:47:10;;;;;;;17.92;9.50;;;;;;;26.83;16.51;98473.31;5042140;28;20491;-91
2021/04/25 01:49:37;;;;;;;20.48;9.50;;;;;;;26.48;16.85;98466.53;5037327;28;20099;-91
2021/04/25 01:52:03;;;;;;;20.35;9.48;;;;;;;26.45;16.90;98470.22;5042392;28;20040;-91
2021/04/25 01:54:30;;;;;;;17.80;9.05;;;;;;;26.74;16.64;98462.63;5046520;28;20033;-90
2021/04/25 01:56:56;;;;;;;20.83;9.43;;;;;;;27.06;16.09;98462.59;5059910;28;20036;-91
2021/04/25 01:59:22;;;;;;;19.73;9.20;;;;;;;27.17;16.18;98465.09;5042599;28;20100;-91
2021/04/25 02:01:49;;;;;;;20.23;10.20;;;;;;;27.16;16.12;98464.31;5048413;28;20107;-91
2021/04/25 02:04:15;;;;;;;26.45;11.13;;;;;;;27.28;16.18;98466.38;5049591;28;20029;-91
2021/04/25 02:06:43;;;;;;;21.65;10.90;;;;;;;26.93;16.31;98463.78;5047860;28;20443;-91
2021/04/25 02:09:10;;;;;;;22.23;10.13;;;;;;;26.88;16.40;98467.13;5043897;28;20052;-92
2021/04/25 02:11:37;;;;;;;26.13;12.10;;;;;;;26.57;16.56;98470.31;5043879;28;20120;-91
2021/04/25 02:14:05;;;;;;;22.10;10.82;;;;;;;26.52;16.77;98473.66;5042600;28;20108;-91
2021/04/25 02:16:32;;;;;;;20.02;10.05;;;;;;;26.96;16.59;98460.03;5043410;28;20120;-91
2021/04/25 02:18:58;;;;;;;21.30;9.95;;;;;;;27.18;16.50;98458.22;5048876;28;20043;-91
2021/04/25 02:21:24;;;;;;;18.55;9.32;;;;;;;26.89;16.75;98461.03;5044331;28;20183;-91
2021/04/25 02:23:51;;;;;;;13.48;8.35;;;;;;;26.42;17.10;98457.81;5040420;28;20491;-91
2021/04/25 02:26:17;;;;;;;20.75;9.75;;;;;;;26.27;17.33;98453.81;5045520;28;20044;-91
2021/04/25 02:28:43;;;;;;;17.48;9.23;;;;;;;26.12;17.41;98452.56;5048939;28;20029;-91
2021/04/25 02:31:09;;;;;;;20.98;10.35;;;;;;;26.46;17.27;98441.66;5050153;28;20053;-91
2021/04/25 02:33:37;;;;;;;22.83;10.30;;;;;;;26.72;16.79;98436.94;5038865;28;20037;-91
2021/04/25 02:36:05;;;;;;;25.02;9.10;;;;;;;26.72;16.59;98436.94;5041934;28;20037;-91
2021/04/25 02:38:31;;;;;;;20.65;10.02;;;;;;;26.74;16.55;98440.91;5039177;28;20029;-91
2021/04/25 02:40:58;;;;;;;20.23;9.90;;;;;;;26.70;16.62;98437.38;5046353;28;20499;-91
2021/04/25 02:43:24;;;;;;;22.92;10.18;;;;;;;26.82;16.41;98443.53;5043187;28;20128;-91
2021/04/25 02:45:50;;;;;;;21.45;9.75;;;;;;;26.84;16.14;98435.44;5046786;28;20112;-91
2021/04/25 02:48:17;;;;;;;21.27;8.75;;;;;;;26.94;16.16;98434.34;5035531;28;20033;-91
2021/04/25 02:50:43;;;;;;;23.15;10.63;;;;;;;26.90;16.19;98433.66;5047011;28;20107;-91
2021/04/25 02:53:11;;;;;;;19.00;8.68;;;;;;;26.84;16.56;98436.22;5045480;28;20033;-91
2021/04/25 02:55:38;;;;;;;13.43;7.63;;;;;;;26.94;16.21;98439.97;5039164;28;20071;-91
2021/04/25 02:58:06;;;;;;;20.85;9.68;;;;;;;26.80;16.04;98426.28;5047732;28;20033;-91
2021/04/25 03:00:32;;;;;;;16.65;8.65;;;;;;;26.58;16.05;98434.50;5039328;28;20407;-91
2021/04/25 03:02:58;;;;;;;19.00;9.25;;;;;;;26.70;16.07;98428.91;5049323;28;20033;-91
2021/04/25 03:05:26;;;;;;;17.60;9.13;;;;;;;26.44;16.63;98423.63;5046387;28;20041;-91
2021/04/25 03:07:52;;;;;;;18.35;8.68;;;;;;;26.44;16.27;98427.19;5042560;28;20095;-91
2021/04/25 03:10:21;;;;;;;19.73;9.02;;;;;;;26.52;16.13;98422.19;5047338;28;20109;-91
2021/04/25 03:12:48;;;;;;;19.48;9.13;;;;;;;26.72;15.99;98428.50;5041605;28;20375;-91
2021/04/25 03:15:16;;;;;;;19.42;9.95;;;;;;;26.86;15.96;98427.34;5036007;28;20108;-91
2021/04/25 03:17:42;;;;;;;18.55;9.63;;;;;;;26.98;16.05;98430.19;5035441;28;20467;-91
2021/04/25 03:20:11;;;;;;;18.10;9.38;;;;;;;27.09;15.92;98422.25;5043445;28;20421;-91
2021/04/25 03:22:38;;;;;;;18.35;9.20;;;;;;;27.17;15.72;98420.78;5043797;28;20121;-91
2021/04/25 03:25:06;;;;;;;20.13;10.32;;;;;;;26.98;16.02;98426.59;5041137;28;20087;-91
2021/04/25 03:27:32;;;;;;;20.13;9.80;;;;;;;26.74;16.27;98417.56;5041543;28;20486;-92
2021/04/25 03:29:58;;;;;;;20.17;9.30;;;;;;;26.83;16.10;98422.59;5041010;28;20028;-91
2021/04/25 03:32:25;;;;;;;20.98;9.38;;;;;;;26.87;16.18;98426.09;5047367;28;20099;-91
2021/04/25 03:34:51;;;;;;;18.63;8.88;;;;;;;26.84;15.82;98415.72;5045849;28;20120;-91
2021/04/25 03:37:18;;;;;;;22.70;9.75;;;;;;;26.51;16.01;98426.25;5035338;28;20048;-91
2021/04/25 03:39:44;;;;;;;17.83;10.07;;;;;;;26.33;16.63;98418.25;5047876;28;20487;-91
2021/04/25 03:42:10;;;;;;;21.00;9.18;;;;;;;26.47;16.43;98426.31;5040699;28;20036;-92
2021/04/25 03:44:36;;;;;;;19.60;9.18;;;;;;;26.74;15.81;98420.38;5041790;28;20527;-91
2021/04/25 03:47:02;;;;;;;19.23;9.63;;;;;;;26.57;16.13;98414.00;5037293;28;20061;-91
2021/04/25 03:49:28;;;;;;;20.70;8.95;;;;;;;26.35;16.20;98417.81;5040619;28;20064;-91
2021/04/25 03:51:55;;;;;;;20.20;9.23;;;;;;;26.44;16.11;98417.97;5039804;28;20040;-91
2021/04/25 03:54:21;;;;;;;22.83;9.57;;;;;;;26.50;16.12;98414.19;5055441;28;20079;-91
2021/04/25 03:56:47;;;;;;;21.02;9.18;;;;;;;26.40;15.96;98408.81;5035944;28;20033;-91
2021/04/25 03:59:14;;;;;;;21.00;9.98;;;;;;;26.46;16.13;98418.31;5040946;28;20052;-91
2021/04/25 04:01:40;;;;;;;19.45;10.15;;;;;;;26.35;16.02;98409.38;5038965;28;20055;-91
2021/04/25 04:04:06;;;;;;;21.77;9.80;;;;;;;26.15;16.36;98411.47;5045091;28;20155;-91
2021/04/25 04:06:32;;;;;;;17.73;8.90;;;;;;;26.35;16.37;98420.63;5045942;28;20037;-89
2021/04/25 04:08:58;;;;;;;20.23;10.20;;;;;;;26.02;16.52;98417.00;5037056;28;20029;-90
2021/04/25 04:11:25;;;;;;;21.08;10.02;;;;;;;26.25;16.17;98421.69;5038972;28;20126;-90
2021/04/25 04:13:51;;;;;;;18.92;9.93;;;;;;;26.56;16.39;98420.84;5042539;28;20029;-90
2021/04/25 04:16:18;;;;;;;19.35;9.15;;;;;;;26.55;16.20;98424.91;5047214;28;20032;-90
2021/04/25 04:18:44;;;;;;;18.33;9.32;;;;;;;26.54;16.38;98419.72;5043027;28;20029;-90
2021/04/25 04:21:11;;;;;;;18.38;9.00;;;;;;;26.94;16.24;98428.72;5048707;28;20025;-90
2021/04/25 04:23:37;;;;;;;15.43;8.68;;;;;;;26.72;16.22;98428.50;5048588;28;20031;-90
2021/04/25 04:26:03;;;;;;;18.45;9.43;;;;;;;26.46;16.35;98423.97;5042528;28;20017;-91
2021/04/25 04:28:29;;;;;;;17.77;9.00;;;;;;;26.71;16.74;98430.50;5039366;28;20025;-91
2021/04/25 04:30:55;;;;;;;16.02;7.68;;;;;;;26.76;16.40;98434.03;5038215;28;20029;-90
2021/04/25 04:33:21;;;;;;;18.48;8.15;;;;;;;26.78;16.50;98434.38;5043674;28;20040;-91
2021/04/25 04:35:47;;;;;;;15.90;9.07;;;;;;;27.08;16.14;98440.38;5038136;28;20037;-91
2021/04/25 04:38:13;;;;;;;20.20;9.27;;;;;;;27.18;16.16;98438.50;5046210;28;20037;-91
2021/04/25 04:40:39;;;;;;;16.52;9.35;;;;;;;26.32;16.92;98430.75;5034314;28;20036;-90
2021/04/25 04:43:05;;;;;;;17.55;9.02;;;;;;;26.22;16.92;98433.81;5045122;28;20055;-91
2021/04/25 04:45:31;;;;;;;17.77;8.73;;;;;;;26.73;16.84;98436.50;5041458;28;20033;-90
2021/04/25 04:47:57;;;;;;;19.10;9.30;;;;;;;26.97;16.56;98428.63;5050802;28;20482;-90
2021/04/25 04:50:24;;;;;;;17.05;8.45;;;;;;;26.79;16.84;98445.25;5035766;28;20572;-90
2021/04/25 04:52:50;;;;;;;20.30;9.57;;;;;;;27.10;16.51;98434.28;5046605;28;20086;-89
2021/04/25 04:55:16;;;;;;;18.38;9.07;;;;;;;27.19;16.69;98440.84;5040091;28;20112;-89
2021/04/25 04:57:43;;;;;;;26.85;9.07;;;;;;;27.42;16.61;98432.16;5047574;28;20033;-88
2021/04/25 05:00:10;;;;;;;17.27;9.10;;;;;;;27.79;16.56;98432.66;5044074;28;20399;-89
2021/04/25 05:02:36;;;;;;;18.70;9.43;;;;;;;27.99;16.29;98445.31;5045812;28;20021;-89
2021/04/25 05:05:03;;;;;;;17.67;9.10;;;;;;;28.15;16.50;98433.09;5043663;28;20088;-88
2021/04/25 05:07:29;;;;;;;24.63;12.18;;;;;;;28.23;16.08;98433.66;5049151;28;20410;-88
2021/04/25 05:09:56;;;;;;;19.75;9.57;;;;;;;28.06;16.05;98445.09;5042327;28;20072;-88
2021/04/25 05:12:22;;;;;;;20.95;11.65;;;;;;;27.88;16.48;98446.88;5051084;28;20040;-88
2021/04/25 05:14:48;;;;;;;17.90;9.93;;;;;;;27.92;16.16;98434.22;5042287;28;20021;-88
2021/04/25 05:17:14;;;;;;;23.02;11.38;;;;;;;27.76;16.18;98439.97;5051506;28;20037;-88
2021/04/25 05:19:40;;;;;;;20.90;10.32;;;;;;;27.88;16.61;98439.19;5046760;28;20159;-88
2021/04/25 05:22:07;;;;;;;19.35;10.93;;;;;;;28.17;16.19;98441.13;5051505;28;20772;-88
2021/04/25 05:24:33;;;;;;;21.50;10.73;;;;;;;28.29;16.03;98440.31;5053984;28;20028;-88
2021/04/25 05:26:59;;;;;;;19.38;10.65;;;;;;;28.46;15.90;98436.09;5047105;28;20127;-88
2021/04/25 05:29:26;;;;;;;19.70;10.10;;;;;;;28.53;15.85;98431.00;5049325;28;20041;-88
2021/04/25 05:31:52;;;;;;;23.67;11.00;;;;;;;28.37;15.75;98441.66;5046907;28;20056;-87
2021/04/25 05:34:18;;;;;;;17.58;8.80;;;;;;;27.80;16.66;98437.84;5043140;28;20033;-88
2021/04/25 05:36:46;;;;;;;20.77;10.77;;;;;;;27.49;16.71;98442.44;5046727;28;20072;-88
2021/04/25 05:39:12;;;;;;;22.75;10.98;;;;;;;27.27;16.88;98433.78;5050145;28;20082;-88
2021/04/25 05:41:38;;;;;;;21.15;10.57;;;;;;;27.51;16.52;98430.69;5038296;28;20113;-88
2021/04/25 05:44:05;;;;;;;17.98;10.15;;;;;;;28.07;16.48;98443.06;5038834;28;20056;-88
2021/04/25 05:46:33;;;;;;;23.23;11.23;;;;;;;28.58;15.97;98429.63;5044537;28;20060;-88
2021/04/25 05:48:59;;;;;;;18.27;10.00;;;;;;;28.94;15.93;98427.16;5039566;28;20022;-88
2021/04/25 05:51:26;;;;;;;18.88;10.15;;;;;;;29.18;15.71;98421.88;5037163;28;20097;-88
2021/04/25 05:53:52;;;;;;;20.08;9.77;;;;;;;29.26;15.86;98434.50;5048215;28;20029;-88
2021/04/25 05:56:19;;;;;;;16.85;9.82;;;;;;;29.41;15.57;98433.50;5043973;28;20021;-88
2021/04/25 05:58:46;;;;;;;19.90;10.38;;;;;;;29.50;15.98;98438.41;5037413;28;20037;-87
2021/04/25 06:01:12;;;;;;;22.45;10.70;;;;;;;29.66;15.99;98443.88;5046147;28;20061;-87
2021/04/25 06:03:38;;;;;;;16.90;10.10;;;;;;;29.77;15.35;98438.59;5041024;28;20028;-87
2021/04/25 06:06:04;;;;;;;19.83;10.57;;;;;;;29.89;15.62;98436.94;5045801;28;20033;-88
2021/04/25 06:08:30;;;;;;;19.65;10.32;;;;;;;29.82;15.96;98432.34;5050726;28;20460;-88
2021/04/25 06:10:57;;;;;;;19.73;9.43;;;;;;;29.92;15.70;98436.78;5039294;28;20042;-88
2021/04/25 06:13:23;;;;;;;17.58;9.30;;;;;;;30.03;15.43;98442.81;5041955;28;20482;-88
2021/04/25 06:15:49;;;;;;;17.17;8.68;;;;;;;30.06;15.26;98441.06;5044995;28;20029;-89
2021/04/25 06:18:15;;;;;;;15.18;8.63;;;;;;;29.84;15.36;98444.00;5047495;28;20672;-88
2021/04/25 06:20:41;;;;;;;19.75;9.85;;;;;;;29.95;15.31;98433.03;5045536;28;20390;-89
2021/04/25 06:23:08;;;;;;;20.42;10.23;;;;;;;30.04;15.48;98440.75;5050833;28;20037;-88
2021/04/25 06:25:34;;;;;;;35.65;14.07;;;;;;;30.04;14.86;98430.22;5049193;28;20065;-89
2021/04/25 06:28:00;;;;;;;23.90;10.93;;;;;;;29.94;15.71;98439.16;5035049;28;20037;-89
2021/04/25 06:30:26;;;;;;;22.13;9.52;;;;;;;29.41;15.98;98433.50;5047101;28;20029;-89
2021/04/25 06:32:53;;;;;;;15.18;8.48;;;;;;;29.76;15.22;98441.88;5044976;28;20624;-89
2021/04/25 06:35:19;;;;;;;19.35;9.40;;;;;;;29.10;15.04;98431.84;5047241;28;20494;-89
2021/04/25 06:37:46;;;;;;;17.27;8.98;;;;;;;29.11;15.41;98430.59;5046195;28;20088;-84
2021/04/25 06:40:14;;;;;;;18.80;10.23;;;;;;;29.17;15.42;98429.53;5048153;28;20025;-87
2021/04/25 06:42:41;;;;;;;17.27;9.80;;;;;;;29.17;15.55;98428.75;5050262;28;20035;-87
2021/04/25 06:45:10;;;;;;;17.90;9.20;;;;;;;29.50;15.14;98427.09;5046000;28;20026;-87
2021/04/25 06:47:36;;;;;;;15.35;7.72;;;;;;;29.37;15.05;98424.38;5046021;28;20087;-87
2021/04/25 06:50:05;;;;;;;11.48;6.72;;;;;;;28.52;15.50;98423.78;5048812;28;20030;-87
2021/04/25 06:52:31;;;;;;;16.02;8.73;;;;;;;27.37;16.14;98429.91;5049610;28;20409;-87
2021/04/25 06:54:58;;;;;;;11.45;6.38;;;;;;;25.90;17.25;98423.31;5044893;28;20079;-88
2021/04/25 06:57:24;;;;;;;13.73;6.97;;;;;;;27.76;16.23;98428.69;5045317;28;20503;-87
2021/04/25 06:59:50;;;;;;;12.05;6.57;;;;;;;28.46;15.94;98419.97;5044730;28;20128;-87
2021/04/25 07:02:16;;;;;;;12.38;5.97;;;;;;;29.05;15.66;98419.09;5046380;28;20044;-87
2021/04/25 07:04:42;;;;;;;12.55;6.28;;;;;;;26.64;16.50;98429.91;5045346;28;20033;-87
2021/04/25 07:07:09;;;;;;;17.73;8.05;;;;;;;23.52;19.03;98431.00;5044451;28;20045;-88
2021/04/25 07:09:35;;;;;;;15.73;8.48;;;;;;;22.03;21.53;98436.59;5045390;28;20029;-88
2021/04/25 07:12:01;;;;;;;12.77;7.35;;;;;;;21.87;20.68;98439.88;5050451;28;20037;-86
2021/04/25 07:14:27;;;;;;;17.55;8.27;;;;;;;21.41;21.40;98446.94;5044729;28;20227;-87
2021/04/25 07:16:53;;;;;;;18.70;8.60;;;;;;;21.12;22.11;98444.28;5048078;28;20045;-87
2021/04/25 07:19:20;;;;;;;17.25;9.55;;;;;;;21.10;22.04;98443.88;5046701;28;20041;-87
2021/04/25 07:21:46;;;;;;;17.05;8.10;;;;;;;22.85;20.70;98443.00;5050337;28;20514;-88
2021/04/25 07:24:12;;;;;;;17.88;7.35;;;;;;;25.04;17.80;98434.81;5038069;28;20040;-87
2021/04/25 07:26:38;;;;;;;12.98;7.05;;;;;;;25.64;17.19;98438.41;5048307;28;20183;-87
2021/04/25 07:29:04;;;;;;;13.93;6.72;;;;;;;25.60;16.85;98443.31;5039433;28;20041;-88
2021/04/25 07:31:31;;;;;;;14.55;7.72;;;;;;;24.49;17.81;98443.06;5043222;28;20108;-93
2021/04/25 07:33:58;;;;;;;15.73;7.32;;;;;;;24.69;18.06;98441.88;5046279;28;20198;-88
2021/04/25 07:36:26;;;;;;;18.55;7.75;;;;;;;23.76;19.02;98446.63;5044119;28;20048;-89
2021/04/25 07:38:52;;;;;;;12.25;7.03;;;;;;;22.86;19.30;98450.19;5051439;28;20070;-88
2021/04/25 07:41:18;;;;;;;10.00;5.75;;;;;;;23.54;18.59;98450.19;5043102;28;20105;-89
2021/04/25 07:43:44;;;;;;;12.35;6.03;;;;;;;24.72;17.65;98441.03;5038974;28;20037;-90
2021/04/25 07:46:10;;;;;;;18.45;8.93;;;;;;;23.05;18.95;98443.19;5044314;28;20041;-88
2021/04/25 07:48:36;;;;;;;16.98;7.95;;;;;;;22.06;20.32;98435.75;5050715;28;20048;-89
2021/04/25 07:51:03;;;;;;;13.18;5.72;;;;;;;25.37;18.72;98433.72;5044882;28;20100;-90
2021/04/25 07:53:29;;;;;;;16.48;8.65;;;;;;;25.20;17.31;98432.09;5048656;28;20033;-91
2021/04/25 07:55:55;;;;;;;17.35;8.38;;;;;;;23.59;19.22;98442.09;5045460;28;20033;-89
2021/04/25 07:58:22;;;;;;;16.00;8.65;;;;;;;22.34;19.82;98445.88;5044041;28;20032;-90
2021/04/25 08:00:48;;;;;;;19.98;10.02;;;;;;;23.75;18.83;98422.63;5044706;28;20071;-90
2021/04/25 08:03:14;;;;;;;12.95;6.15;;;;;;;26.82;16.91;98429.44;5041114;28;20040;-87
2021/04/25 08:05:40;;;;;;;14.88;7.28;;;;;;;26.30;17.42;98421.16;5043358;28;20025;-87
2021/04/25 08:08:06;;;;;;;13.88;7.13;;;;;;;23.86;19.01;98425.25;5042731;28;20037;-86
2021/04/25 08:10:32;;;;;;;17.50;8.25;;;;;;;23.28;19.12;98416.06;5040908;28;20044;-86
2021/04/25 08:12:59;;;;;;;11.65;5.95;;;;;;;26.59;17.59;98410.72;5043522;28;20545;-87
2021/04/25 08:15:25;;;;;;;6.88;3.05;;;;;;;26.13;15.82;98419.56;5049819;28;20132;-86
2021/04/25 08:17:52;;;;;;;9.40;4.40;;;;;;;24.09;16.51;98419.72;5040431;28;20199;-86
2021/04/25 08:20:18;;;;;;;7.65;4.25;;;;;;;22.81;17.43;98419.03;5038986;28;20038;-86
2021/04/25 08:22:45;;;;;;;6.90;3.40;;;;;;;23.16;17.57;98419.41;5039754;28;20115;-85
2021/04/25 08:25:11;;;;;;;9.25;4.53;;;;;;;23.11;17.83;98421.88;5041149;28;20608;-84
2021/04/25 08:27:37;;;;;;;10.75;4.70;;;;;;;22.16;18.01;98411.69;5043916;28;20029;-86
2021/04/25 08:30:05;;;;;;;5.03;2.58;;;;;;;23.57;14.14;98416.47;5035295;28;20037;-87
2021/04/25 08:32:31;;;;;;;3.28;1.88;;;;;;;24.92;15.18;98415.81;5041790;28;20041;-86
2021/04/25 08:34:57;;;;;;;6.53;3.30;;;;;;;22.61;16.43;98421.69;5038586;28;20112;-86
2021/04/25 08:37:23;;;;;;;5.07;3.05;;;;;;;22.30;17.55;98412.38;5036138;28;20120;-87
2021/04/25 08:39:49;;;;;;;3.90;1.90;;;;;;;24.53;15.19;98405.28;5039280;28;20557;-86
2021/04/25 08:42:16;;;;;;;4.18;2.10;;;;;;;26.75;14.86;98399.44;5036075;28;20045;-86
2021/04/25 08:44:45;;;;;;;3.45;1.98;;;;;;;27.64;13.58;98394.81;5037574;28;20037;-86
2021/04/25 08:47:13;;;;;;;6.38;3.15;;;;;;;23.40;16.85;98409.13;5033440;28;20065;-86
2021/04/25 08:49:41;;;;;;;7.78;3.38;;;;;;;24.05;16.05;98402.91;5038875;28;20029;-87
2021/04/25 08:52:08;;;;;;;4.93;2.33;;;;;;;23.62;17.36;98413.19;5045622;28;20070;-86
2021/04/25 08:54:35;;;;;;;6.40;3.30;;;;;;;23.74;16.47;98401.41;5046203;28;20029;-84
2021/04/25 08:57:01;;;;;;;6.03;2.78;;;;;;;24.90;15.15;98406.22;5044198;28;20047;-85
2021/04/25 08:59:27;;;;;;;5.30;3.03;;;;;;;26.17;13.86;98403.38;5046186;28;20797;-84
2021/04/25 09:01:54;;;;;;;6.57;3.72;;;;;;;26.34;13.46;98388.06;5048147;28;20506;-85
2021/04/25 09:04:20;;;;;;;6.13;3.20;;;;;;;23.88;15.98;98409.59;5051869;28;20037;-85
2021/04/25 09:07:05;;;;;;;4.63;2.95;;;;;;;22.30;15.95;98403.16;5045932;28;20047;-86
2021/04/25 09:09:44;;;;;;;5.18;2.17;;;;;;;25.45;14.85;98406.28;5042344;28;20029;-87
2021/04/25 09:12:15;;;;;;;3.85;2.28;;;;;;;27.84;14.30;98407.47;5049831;28;20033;-86
2021/04/25 09:14:41;;;;;;;6.82;3.15;;;;;;;27.57;13.86;98398.66;5044141;28;20040;-87
2021/04/25 09:17:08;;;;;;;4.15;2.03;;;;;;;28.76;12.69;98393.09;5040111;28;20033;-87
2021/04/25 09:19:49;;;;;;;5.63;2.13;;;;;;;28.94;12.37;98384.75;5040559;28;20510;-87
2021/04/25 09:22:16;;;;;;;6.15;2.30;;;;;;;28.14;13.53;98385.56;5045474;28;20120;-87
2021/04/25 09:24:42;;;;;;;5.72;3.00;;;;;;;25.66;15.00;98390.94;5047645;28;20037;-88
2021/04/25 09:27:08;;;;;;;4.93;2.60;;;;;;;23.48;16.36;98398.63;5047813;28;20025;-87
2021/04/25 09:29:53;;;;;;;5.55;2.53;;;;;;;24.16;15.23;98393.53;5048141;28;20028;-87
2021/04/25 09:32:29;;;;;;;6.00;3.42;;;;;;;25.66;14.87;98396.56;5049911;28;20041;-90
2021/04/25 09:35:09;;;;;;;4.65;1.88;;;;;;;24.68;15.13;98403.00;5041777;28;20391;-84
2021/04/25 09:37:37;;;;;;;5.53;2.83;;;;;;;23.09;16.44;98396.31;5042807;28;20049;-87
2021/04/25 09:40:10;;;;;;;3.80;2.20;;;;;;;24.16;16.23;98399.94;5044274;28;20060;-86
2021/04/25 09:42:59;;;;;;;4.78;2.55;;;;;;;24.82;14.65;98394.34;5039345;28;20083;-85
2021/04/25 09:45:31;;;;;;;4.45;2.42;;;;;;;24.19;15.76;98393.50;5042491;28;20048;-85
2021/04/25 09:47:59;;;;;;;5.90;2.55;;;;;;;23.88;15.86;98400.38;5045896;28;20032;-87
2021/04/25 09:50:26;;;;;;;6.15;3.38;;;;;;;23.42;16.02;98397.50;5062204;28;20040;-86
2021/04/25 09:52:52;;;;;;;6.18;2.33;;;;;;;24.73;16.30;98391.28;5041232;28;20017;-86
2021/04/25 09:55:25;;;;;;;4.07;2.15;;;;;;;27.13;14.30;98386.28;5045028;28;20466;-86
2021/04/25 09:57:57;;;;;;;3.25;1.98;;;;;;;28.32;13.31;98380.09;5050273;28;20045;-86
2021/04/25 10:00:37;;;;;;;3.45;1.73;;;;;;;28.57;12.30;98377.19;5044906;28;20045;-88
2021/04/25 10:03:09;;;;;;;4.93;1.98;;;;;;;29.58;12.40;98377.47;5052885;28;22544;-87
2021/04/25 10:05:36;;;;;;;3.33;1.35;;;;;;;29.36;11.17;98374.69;5050993;28;20456;-86
2021/04/25 10:08:02;;;;;;;4.28;2.35;;;;;;;29.26;11.18;98375.09;5049977;28;20033;-86
2021/04/25 10:10:29;;;;;;;1.95;1.42;;;;;;;29.81;11.14;98373.34;5046892;28;20029;-86
2021/04/25 10:12:56;;;;;;;3.47;2.50;;;;;;;26.07;14.01;98383.47;5039634;28;20036;-85
2021/04/25 10:15:23;;;;;;;6.18;2.25;;;;;;;24.57;15.64;98392.00;5050317;28;20060;-85
2021/04/25 10:17:54;;;;;;;3.47;1.98;;;;;;;23.63;14.88;98383.16;5052376;28;20078;-86
2021/04/25 10:20:21;;;;;;;3.40;2.45;;;;;;;24.29;15.72;98383.31;5047202;28;20034;-86
2021/04/25 10:22:50;;;;;;;4.95;2.47;;;;;;;26.51;13.57;98381.19;5044232;28;20036;-86
2021/04/25 10:25:34;;;;;;;3.90;1.98;;;;;;;27.84;12.02;98362.31;5048386;28;20112;-86
2021/04/25 10:28:04;;;;;;;3.33;2.17;;;;;;;27.89;12.90;98358.16;5044591;28;20029;-86
2021/04/25 10:30:39;;;;;;;2.97;1.90;;;;;;;28.20;12.01;98366.78;5047795;28;20048;-86
2021/04/25 10:33:06;;;;;;;3.05;1.77;;;;;;;27.77;12.21;98368.19;5045202;28;20024;-86
2021/04/25 10:35:36;;;;;;;2.83;1.45;;;;;;;25.88;13.01;98372.34;5051674;28;20063;-86
2021/04/25 10:38:04;;;;;;;4.70;2.33;;;;;;;23.08;14.80;98389.91;5048714;28;20384;-86
2021/04/25 10:40:37;;;;;;;6.38;2.83;;;;;;;22.05;16.03;98395.03;5047928;28;20080;-86
2021/04/25 10:43:13;;;;;;;4.45;2.53;;;;;;;22.77;15.73;98379.91;5043983;28;20544;-86
2021/04/25 10:46:00;;;;;;;2.92;1.90;;;;;;;23.92;14.86;98376.66;5044975;28;20505;-86
2021/04/25 10:48:31;;;;;;;4.05;2.45;;;;;;;24.24;14.15;98366.97;5045107;28;20568;-87
2021/04/25 10:51:14;;;;;;;3.85;2.13;;;;;;;24.41;14.04;98374.25;5040578;28;20372;-87
2021/04/25 10:53:46;;;;;;;2.40;1.70;;;;;;;27.06;13.42;98368.78;5047306;28;20495;-86
2021/04/25 10:56:16;;;;;;;3.35;2.00;;;;;;;28.28;11.72;98360.47;5045294;28;20033;-87
2021/04/25 10:58:43;;;;;;;3.30;1.42;;;;;;;28.99;11.15;98355.09;5045104;28;20486;-86
2021/04/25 11:01:39;;;;;;;3.20;1.60;;;;;;;29.39;10.40;98362.44;5041473;28;20494;-86
2021/04/25 11:04:06;;;;;;;3.80;1.77;;;;;;;28.55;11.29;98362.75;5043596;28;20083;-86
2021/04/25 11:06:32;;;;;;;3.80;2.38;;;;;;;26.22;12.75;98360.63;5039684;28;20060;-86
2021/04/25 11:08:58;;;;;;;3.55;1.80;;;;;;;24.42;14.81;98371.03;5043720;28;20037;-85
2021/04/25 11:11:33;;;;;;;4.32;2.30;;;;;;;23.47;14.87;98374.59;5047102;28;20025;-86
2021/04/25 11:14:00;;;;;;;3.70;2.53;;;;;;;25.09;13.22;98369.69;5039671;28;20491;-85
2021/04/25 11:16:31;;;;;;;4.97;2.30;;;;;;;24.59;14.21;98357.88;5036456;28;20064;-85
2021/04/25 11:19:09;;;;;;;3.85;2.20;;;;;;;26.45;12.92;98371.69;5040323;28;20034;-86
2021/04/25 11:21:53;;;;;;;5.57;2.10;;;;;;;25.50;13.27;98371.22;5048141;28;20035;-86
2021/04/25 11:24:24;;;;;;;3.10;1.75;;;;;;;24.58;14.17;98373.91;5046174;28;20029;-86
2021/04/25 11:26:52;;;;;;;4.05;1.92;;;;;;;26.33;13.58;98361.13;5044365;28;20033;-85
2021/04/25 11:29:42;;;;;;;3.20;2.17;;;;;;;24.70;14.10;98370.47;5043247;28;20375;-85